Time;durP1;ratioP1;P1;durP2;ratioP2;P2;SDS_P1;SDS_P2;PMS_P1;PMS_P2;Temp;Humidity;BMP_temperature;BMP_pressure;BME280_temperature;BME280_humidity;BME280_pressure;Samples;Min_cycle;Max_cycle;Signal;HPM_P1;HPM_P2
2023/09/10 00:01:00;;;;;;;31.13;26.50;;;;;;;19.95;100.00;101644.91;5064203;28;20055;-74
2023/09/10 00:03:26;;;;;;;30.58;26.98;;;;;;;19.95;100.00;101651.06;5064689;28;20051;-74
2023/09/10 00:05:51;;;;;;;29.45;24.83;;;;;;;19.96;100.00;101652.78;5063223;28;20028;-74
2023/09/10 00:08:16;;;;;;;30.75;24.98;;;;;;;19.92;100.00;101655.66;5064077;28;20477;-74
2023/09/10 00:10:42;;;;;;;32.40;26.60;;;;;;;19.86;100.00;101640.94;5063964;28;20107;-74
2023/09/10 00:13:07;;;;;;;30.98;24.50;;;;;;;19.90;100.00;101657.50;5060786;28;20066;-74
2023/09/10 00:15:33;;;;;;;29.73;26.38;;;;;;;19.87;100.00;101656.72;5064036;28;20030;-74
2023/09/10 00:17:59;;;;;;;29.38;25.08;;;;;;;19.79;100.00;101640.38;5062235;28;20020;-74
2023/09/10 00:20:26;;;;;;;28.27;25.00;;;;;;;19.82;100.00;101645.53;5062020;28;20029;-74
2023/09/10 00:22:52;;;;;;;39.58;27.60;;;;;;;19.82;100.00;101657.91;5063962;28;20029;-74
2023/09/10 00:25:17;;;;;;;33.25;26.70;;;;;;;19.75;100.00;101646.75;5061410;28;20036;-74
2023/09/10 00:27:42;;;;;;;33.28;27.55;;;;;;;19.78;100.00;101651.91;5062625;28;20020;-74
2023/09/10 00:30:08;;;;;;;34.15;28.85;;;;;;;19.74;100.00;101646.81;5064119;28;20025;-74
2023/09/10 00:32:34;;;;;;;36.72;28.02;;;;;;;19.71;100.00;101653.13;5062402;28;20027;-74
2023/09/10 00:34:59;;;;;;;36.38;30.27;;;;;;;19.70;100.00;101648.75;5063247;28;20020;-74
2023/09/10 00:37:24;;;;;;;36.58;30.10;;;;;;;19.69;100.00;101641.78;5063785;28;20024;-74
2023/09/10 00:39:50;;;;;;;42.13;30.67;;;;;;;19.65;100.00;101637.53;5062638;28;20494;-74
2023/09/10 00:42:15;;;;;;;39.20;28.73;;;;;;;19.67;100.00;101637.47;5064992;28;20544;-74
2023/09/10 00:44:41;;;;;;;38.60;31.00;;;;;;;19.66;100.00;101641.91;5060915;28;20040;-74
2023/09/10 00:47:08;;;;;;;41.35;32.45;;;;;;;19.64;100.00;101643.78;5067718;28;20036;-74
2023/09/10 00:49:35;;;;;;;36.88;31.42;;;;;;;19.60;100.00;101644.81;5059170;28;20122;-74
2023/09/10 00:52:02;;;;;;;33.95;29.95;;;;;;;19.53;100.00;101630.19;5068480;28;20025;-74
2023/09/10 00:54:31;;;;;;;35.85;30.45;;;;;;;19.54;100.00;101637.19;5060336;28;20029;-74
2023/09/10 00:56:57;;;;;;;37.95;31.75;;;;;;;19.57;100.00;101642.31;5061079;28;20040;-74
2023/09/10 00:59:23;;;;;;;37.67;31.65;;;;;;;19.53;100.00;101646.91;5064438;28;20033;-74
2023/09/10 01:01:49;;;;;;;36.03;31.92;;;;;;;19.51;100.00;101642.63;5067420;28;20036;-74
2023/09/10 01:04:17;;;;;;;41.08;31.15;;;;;;;19.49;100.00;101642.72;5060869;28;20035;-74
2023/09/10 01:06:42;;;;;;;39.05;32.47;;;;;;;19.45;100.00;101642.91;5051647;28;20036;-74
2023/09/10 01:09:07;;;;;;;39.67;32.03;;;;;;;19.43;100.00;101640.34;5058678;28;20025;-74
2023/09/10 01:11:33;;;;;;;38.85;32.33;;;;;;;19.42;100.00;101639.50;5063358;28;20464;-74
2023/09/10 01:14:11;;;;;;;39.45;34.20;;;;;;;19.37;100.00;101632.72;5059012;28;20136;-74
2023/09/10 01:17:01;;;;;;;39.40;34.17;;;;;;;19.36;100.00;101645.09;5047634;28;20420;-74
2023/09/10 01:19:42;;;;;;;40.95;36.53;;;;;;;19.33;100.00;101639.94;5061503;28;20037;-74
2023/09/10 01:22:25;;;;;;;44.33;37.75;;;;;;;19.31;100.00;101643.56;5062000;28;20041;-74
2023/09/10 01:24:52;;;;;;;41.90;36.97;;;;;;;19.31;100.00;101644.44;5052321;28;20020;-74
2023/09/10 01:27:18;;;;;;;43.83;38.78;;;;;;;19.31;100.00;101646.22;5062275;28;20048;-74
2023/09/10 01:29:44;;;;;;;43.60;37.63;;;;;;;19.27;100.00;101634.94;5057262;28;20033;-74
2023/09/10 01:32:54;;;;;;;43.72;38.03;;;;;;;19.30;100.00;101640.06;5062588;28;20043;-74
2023/09/10 01:35:25;;;;;;;41.58;37.03;;;;;;;19.27;100.00;101645.50;5055940;28;20047;-74
2023/09/10 01:38:12;;;;;;;41.67;36.70;;;;;;;19.28;100.00;101641.06;5060435;28;20055;-74
2023/09/10 01:40:55;;;;;;;43.92;38.35;;;;;;;19.25;100.00;101647.34;5062180;28;20399;-74
2023/09/10 01:43:21;;;;;;;43.92;37.20;;;;;;;19.23;100.00;101640.41;5061042;28;20486;-74
2023/09/10 01:45:48;;;;;;;44.15;37.75;;;;;;;19.20;100.00;101646.72;5060661;28;20116;-74
2023/09/10 01:48:13;;;;;;;41.40;36.53;;;;;;;19.21;100.00;101651.06;5063711;28;20123;-74
2023/09/10 01:50:39;;;;;;;47.83;37.58;;;;;;;19.16;100.00;101648.66;5064328;28;20071;-74
2023/09/10 01:53:04;;;;;;;43.85;38.50;;;;;;;19.12;100.00;101641.78;5065480;28;20024;-74
2023/09/10 01:55:29;;;;;;;42.75;37.20;;;;;;;19.11;100.00;101650.66;5067052;28;20060;-74
2023/09/10 01:57:55;;;;;;;42.63;38.13;;;;;;;19.05;100.00;101656.22;5065838;28;20048;-74
2023/09/10 02:00:21;;;;;;;42.63;38.10;;;;;;;19.06;100.00;101649.13;5066041;28;20032;-74
2023/09/10 02:02:46;;;;;;;41.63;36.92;;;;;;;19.02;100.00;101658.13;5066383;28;20021;-74
2023/09/10 02:05:11;;;;;;;43.65;38.42;;;;;;;18.97;100.00;101652.22;5065496;28;20037;-74
2023/09/10 02:07:37;;;;;;;45.65;38.83;;;;;;;18.99;100.00;101661.78;5066378;28;20028;-74
2023/09/10 02:10:02;;;;;;;42.75;37.97;;;;;;;18.96;100.00;101659.28;5065983;28;20032;-74
2023/09/10 02:12:28;;;;;;;43.28;37.60;;;;;;;18.95;100.00;101660.22;5065359;28;20033;-74
2023/09/10 02:14:54;;;;;;;44.15;38.95;;;;;;;18.97;100.00;101652.22;5067006;28;20035;-74
2023/09/10 02:17:19;;;;;;;43.67;39.00;;;;;;;18.95;100.00;101660.22;5064644;28;20056;-74
2023/09/10 02:19:44;;;;;;;45.90;39.58;;;;;;;18.94;100.00;101658.50;5065438;28;20079;-74
2023/09/10 02:22:10;;;;;;;45.40;40.28;;;;;;;18.93;100.00;101657.66;5065388;28;20033;-74
2023/09/10 02:24:35;;;;;;;43.92;39.05;;;;;;;18.93;100.00;101664.69;5065556;28;20384;-74
2023/09/10 02:27:00;;;;;;;42.20;37.67;;;;;;;18.91;100.00;101651.56;5066363;28;20116;-74
2023/09/10 02:29:25;;;;;;;45.95;39.08;;;;;;;18.87;100.00;101652.66;5064114;28;20082;-74
2023/09/10 02:31:51;;;;;;;43.17;38.53;;;;;;;18.84;100.00;101647.50;5068932;28;20499;-74
2023/09/10 02:34:16;;;;;;;44.35;39.65;;;;;;;18.91;100.00;101658.63;5062045;28;20396;-74
2023/09/10 02:36:41;;;;;;;44.85;39.40;;;;;;;18.90;100.00;101656.91;5068459;28;20040;-74
2023/09/10 02:39:06;;;;;;;45.08;39.40;;;;;;;18.88;100.00;101658.78;5062703;28;20024;-74
2023/09/10 02:41:32;;;;;;;46.35;41.35;;;;;;;18.87;100.00;101654.44;5069490;28;20036;-74
2023/09/10 02:43:57;;;;;;;45.60;40.92;;;;;;;18.85;100.00;101651.84;5063003;28;20021;-74
2023/09/10 02:46:25;;;;;;;51.20;42.75;;;;;;;18.86;100.00;101650.91;5068306;28;20495;-74
2023/09/10 02:48:50;;;;;;;52.05;45.28;;;;;;;18.87;100.00;101652.66;5062932;28;20040;-74
2023/09/10 02:51:17;;;;;;;54.05;48.20;;;;;;;18.87;100.00;101657.06;5066821;28;20545;-74
2023/09/10 02:53:42;;;;;;;55.60;45.30;;;;;;;18.86;100.00;101653.53;5065369;28;20036;-74
2023/09/10 02:56:07;;;;;;;55.70;47.10;;;;;;;18.87;100.00;101657.94;5063192;28;20028;-74
2023/09/10 02:58:33;;;;;;;54.58;48.60;;;;;;;18.87;100.00;101659.72;5065062;28;20082;-74
2023/09/10 03:01:03;;;;;;;59.05;47.92;;;;;;;18.87;100.00;101668.50;5064592;28;20527;-74
2023/09/10 03:03:29;;;;;;;54.08;46.55;;;;;;;18.84;100.00;101660.69;5064899;28;20059;-74
2023/09/10 03:05:54;;;;;;;56.58;47.78;;;;;;;18.83;100.00;101656.31;5065497;28;20527;-74
2023/09/10 03:08:19;;;;;;;56.35;50.38;;;;;;;18.71;100.00;101655.06;5063925;28;20036;-74
2023/09/10 03:10:44;;;;;;;54.53;47.88;;;;;;;18.79;100.00;101656.53;5064615;28;20020;-74
2023/09/10 03:13:10;;;;;;;58.97;51.55;;;;;;;18.77;100.00;101664.56;5064992;28;20029;-74
2023/09/10 03:15:35;;;;;;;57.03;50.78;;;;;;;18.76;100.00;101659.31;5063805;28;20114;-74
2023/09/10 03:18:00;;;;;;;60.95;50.50;;;;;;;18.75;100.00;101657.63;5065637;28;20623;-74
2023/09/10 03:20:26;;;;;;;55.83;49.83;;;;;;;18.70;100.00;101655.13;5063725;28;20029;-74
2023/09/10 03:22:57;;;;;;;56.90;49.72;;;;;;;18.69;100.00;101643.72;5064272;28;20103;-74
2023/09/10 03:25:23;;;;;;;61.15;51.70;;;;;;;18.68;100.00;101649.06;5063957;28;20059;-74
2023/09/10 03:27:48;;;;;;;58.28;51.38;;;;;;;18.69;100.00;101648.13;5065314;28;20444;-74
2023/09/10 03:30:13;;;;;;;60.00;52.15;;;;;;;18.70;100.00;101650.72;5064042;28;20111;-74
2023/09/10 03:32:39;;;;;;;57.50;51.10;;;;;;;18.70;100.00;101648.09;5064009;28;20033;-74
2023/09/10 03:35:05;;;;;;;58.92;51.83;;;;;;;18.71;100.00;101651.59;5065419;28;20472;-74
2023/09/10 03:37:30;;;;;;;60.15;53.40;;;;;;;18.68;100.00;101649.94;5062917;28;20033;-74
2023/09/10 03:39:56;;;;;;;60.92;53.13;;;;;;;18.68;100.00;101647.28;5065007;28;20373;-74
2023/09/10 03:42:21;;;;;;;60.17;53.38;;;;;;;18.64;100.00;101656.28;5065723;28;20021;-74
2023/09/10 03:44:46;;;;;;;58.97;51.88;;;;;;;18.60;100.00;101654.69;5062415;28;20040;-74
2023/09/10 03:47:12;;;;;;;57.17;50.80;;;;;;;18.61;100.00;101656.41;5067707;28;20017;-74
2023/09/10 03:49:37;;;;;;;61.13;54.35;;;;;;;18.57;100.00;101641.59;5061060;28;20041;-74
2023/09/10 03:52:14;;;;;;;63.15;53.75;;;;;;;18.58;100.00;101648.63;5068549;28;20025;-74
2023/09/10 03:54:40;;;;;;;62.90;53.47;;;;;;;18.58;100.00;101648.63;5061074;28;20522;-74
2023/09/10 03:57:06;;;;;;;62.65;54.78;;;;;;;18.50;100.00;101642.81;5066318;28;20033;-74
2023/09/10 03:59:31;;;;;;;62.33;55.30;;;;;;;18.51;100.00;101646.31;5062728;28;20025;-74
2023/09/10 04:01:59;;;;;;;63.25;54.47;;;;;;;18.49;100.00;101646.38;5069379;28;20056;-74
2023/09/10 04:04:24;;;;;;;63.95;54.25;;;;;;;18.47;100.00;101643.81;5061352;28;20108;-74
2023/09/10 04:06:49;;;;;;;61.38;54.45;;;;;;;18.47;100.00;101642.94;5067665;28;20420;-74
2023/09/10 04:09:15;;;;;;;66.22;54.78;;;;;;;18.45;100.00;101639.53;5060728;28;20032;-74
2023/09/10 04:11:40;;;;;;;62.20;54.65;;;;;;;18.45;100.00;101637.75;5066021;28;20428;-74
2023/09/10 04:14:05;;;;;;;63.53;56.22;;;;;;;18.44;100.00;101643.97;5055499;28;20070;-74
2023/09/10 04:16:30;;;;;;;63.38;53.70;;;;;;;18.45;100.00;101640.38;5067625;28;20029;-74
2023/09/10 04:18:56;;;;;;;61.17;53.22;;;;;;;18.39;100.00;101627.44;5060182;28;20457;-74
2023/09/10 04:21:21;;;;;;;64.95;56.55;;;;;;;18.39;100.00;101629.22;5067963;28;20043;-74
2023/09/10 04:23:46;;;;;;;63.42;51.47;;;;;;;18.41;100.00;101633.53;5060730;28;20033;-74
2023/09/10 04:26:12;;;;;;;65.43;53.35;;;;;;;18.41;100.00;101636.16;5067257;28;20109;-74
2023/09/10 04:28:38;;;;;;;61.72;52.05;;;;;;;18.39;100.00;101635.38;5060650;28;20047;-74
2023/09/10 04:31:03;;;;;;;66.47;52.83;;;;;;;18.36;100.00;101626.72;5066142;28;20441;-74
2023/09/10 04:33:28;;;;;;;61.55;54.83;;;;;;;18.36;100.00;101632.00;5061921;28;20455;-74
2023/09/10 04:35:57;;;;;;;59.88;52.75;;;;;;;18.35;100.00;101627.66;5063799;28;20103;-74
2023/09/10 04:38:22;;;;;;;62.80;53.67;;;;;;;18.32;100.00;101631.28;5064075;28;20388;-74
2023/09/10 04:40:48;;;;;;;62.60;53.75;;;;;;;18.29;100.00;101628.78;5061708;28;20039;-74
2023/09/10 04:43:13;;;;;;;61.45;53.15;;;;;;;18.26;100.00;101636.81;5063829;28;20491;-74
2023/09/10 04:45:38;;;;;;;62.15;51.35;;;;;;;18.27;100.00;101638.53;5062564;28;20059;-74
2023/09/10 04:48:04;;;;;;;65.35;53.30;;;;;;;18.25;100.00;101638.59;5063093;28;20075;-74
2023/09/10 04:50:30;;;;;;;62.10;53.42;;;;;;;18.20;100.00;101630.00;5063818;28;20408;-74
2023/09/10 04:52:55;;;;;;;59.33;51.60;;;;;;;18.22;100.00;101640.53;5063165;28;20456;-74
2023/09/10 04:55:21;;;;;;;62.03;53.47;;;;;;;18.19;100.00;101638.00;5062853;28;20028;-74
2023/09/10 04:57:48;;;;;;;58.75;51.92;;;;;;;18.09;100.00;101624.34;5063000;28;20388;-74
2023/09/10 05:00:13;;;;;;;61.20;52.67;;;;;;;18.16;100.00;101638.13;5063685;28;20399;-74
2023/09/10 05:02:39;;;;;;;65.22;54.80;;;;;;;18.13;100.00;101640.91;5064113;28;20040;-74
2023/09/10 05:05:04;;;;;;;61.10;51.65;;;;;;;18.10;100.00;101630.47;5062025;28;20098;-74
2023/09/10 05:07:30;;;;;;;62.80;53.25;;;;;;;18.13;100.00;101643.53;5067080;28;20021;-74
2023/09/10 05:09:55;;;;;;;60.33;51.70;;;;;;;18.13;100.00;101648.81;5059521;28;20021;-74
2023/09/10 05:12:20;;;;;;;57.78;51.42;;;;;;;18.12;100.00;101650.63;5063454;28;20029;-74
2023/09/10 05:14:45;;;;;;;59.63;50.83;;;;;;;18.11;100.00;101653.28;5062056;28;20428;-74
2023/09/10 05:17:11;;;;;;;58.92;51.85;;;;;;;18.11;100.00;101661.22;5061337;28;20025;-74
2023/09/10 05:19:36;;;;;;;60.72;51.70;;;;;;;18.08;100.00;101654.28;5063176;28;20035;-74
2023/09/10 05:22:02;;;;;;;64.60;54.13;;;;;;;18.06;100.00;101656.13;5062801;28;20107;-74
2023/09/10 05:24:27;;;;;;;59.35;52.15;;;;;;;18.05;100.00;101654.44;5062653;28;20033;-74
2023/09/10 05:26:52;;;;;;;59.90;52.42;;;;;;;18.07;100.00;101651.72;5069395;28;20040;-74
2023/09/10 05:29:19;;;;;;;59.75;50.60;;;;;;;18.07;100.00;101652.56;5063675;28;20384;-74
2023/09/10 05:31:44;;;;;;;57.58;50.05;;;;;;;18.11;100.00;101651.50;5071036;28;20021;-74
2023/09/10 05:34:09;;;;;;;64.05;51.88;;;;;;;18.12;100.00;101655.03;5064098;28;20035;-74
2023/09/10 05:36:35;;;;;;;60.60;51.50;;;;;;;18.15;100.00;101652.28;5070594;28;20112;-74
2023/09/10 05:39:01;;;;;;;60.08;50.50;;;;;;;18.15;100.00;101658.41;5064298;28;20025;-74
2023/09/10 05:41:26;;;;;;;58.03;49.90;;;;;;;18.22;100.00;101661.63;5071311;28;20422;-74
2023/09/10 05:43:52;;;;;;;62.42;50.55;;;;;;;18.24;100.00;101657.97;5063198;28;20091;-74
2023/09/10 05:46:17;;;;;;;56.72;49.22;;;;;;;18.32;100.00;101659.47;5069835;28;20028;-74
2023/09/10 05:48:43;;;;;;;57.53;48.65;;;;;;;18.32;100.00;101659.47;5065405;28;20040;-74
2023/09/10 05:51:08;;;;;;;57.47;48.35;;;;;;;18.37;100.00;101655.69;5067112;28;20020;-74
2023/09/10 05:53:33;;;;;;;55.30;49.33;;;;;;;18.43;100.00;101657.22;5067022;28;20024;-74
2023/09/10 05:56:03;;;;;;;53.00;47.38;;;;;;;18.48;100.00;101664.00;5066520;28;20491;-74
2023/09/10 05:58:28;;;;;;;52.65;46.72;;;;;;;18.55;100.00;101664.59;5067316;28;20024;-74
2023/09/10 06:00:53;;;;;;;55.55;48.65;;;;;;;18.59;100.00;101662.69;5066709;28;20082;-74
2023/09/10 06:03:19;;;;;;;54.47;48.13;;;;;;;18.64;100.00;101661.56;5066743;28;20392;-74
2023/09/10 06:05:44;;;;;;;51.03;45.53;;;;;;;18.71;100.00;101662.16;5065973;28;20024;-74
2023/09/10 06:08:10;;;;;;;53.65;45.60;;;;;;;18.76;100.00;101672.53;5063883;28;20480;-74
2023/09/10 06:10:36;;;;;;;60.13;46.58;;;;;;;18.77;100.00;101666.31;5066149;28;20032;-74
2023/09/10 06:13:01;;;;;;;51.92;46.17;;;;;;;18.82;100.00;101675.75;5063064;28;20396;-74
2023/09/10 06:15:27;;;;;;;54.17;46.30;;;;;;;18.87;100.00;101676.41;5066745;28;20028;-74
2023/09/10 06:17:52;;;;;;;48.83;43.53;;;;;;;18.95;100.00;101674.28;5066165;28;20397;-74
2023/09/10 06:20:19;;;;;;;50.00;43.97;;;;;;;19.04;100.00;101682.72;5064248;28;21678;-74
2023/09/10 06:22:44;;;;;;;52.67;46.53;;;;;;;19.12;100.00;101684.06;5066138;28;20029;-74
2023/09/10 06:25:10;;;;;;;49.47;42.40;;;;;;;19.18;100.00;101678.50;5065742;28;20040;-74
2023/09/10 06:27:35;;;;;;;51.63;45.13;;;;;;;19.30;100.00;101684.16;5065166;28;20027;-74
2023/09/10 06:30:01;;;;;;;51.38;43.38;;;;;;;19.35;100.00;101685.66;5066572;28;20039;-74
2023/09/10 06:32:26;;;;;;;52.00;45.35;;;;;;;19.44;100.00;101683.50;5064440;28;20020;-74
2023/09/10 06:34:51;;;;;;;48.25;43.10;;;;;;;19.50;100.00;101684.09;5065807;28;20426;-74
2023/09/10 06:37:16;;;;;;;51.50;44.13;;;;;;;19.60;100.00;101682.72;5065390;28;20021;-74
2023/09/10 06:39:42;;;;;;;49.85;44.40;;;;;;;19.66;100.00;101686.88;5063664;28;20033;-74
2023/09/10 06:42:10;;;;;;;47.92;41.92;;;;;;;19.74;100.00;101692.66;5068763;28;20025;-74
2023/09/10 06:44:38;;;;;;;46.85;41.72;;;;;;;19.82;100.00;101687.84;5063207;28;20025;-74
2023/09/10 06:47:03;;;;;;;45.80;40.63;;;;;;;19.87;100.00;101684.97;5069490;28;20037;-74
2023/09/10 06:49:28;;;;;;;43.85;38.95;;;;;;;19.97;100.00;101688.03;5062266;28;20168;-74
2023/09/10 06:51:54;;;;;;;46.58;39.67;;;;;;;20.01;100.00;101685.16;5070716;28;20029;-74
2023/09/10 06:54:19;;;;;;;42.53;36.47;;;;;;;20.13;100.00;101688.13;5061746;28;20045;-74
2023/09/10 06:56:44;;;;;;;40.00;35.30;;;;;;;20.22;100.00;101692.97;5066419;28;20068;-74
2023/09/10 06:59:10;;;;;;;39.08;34.95;;;;;;;20.25;100.00;101693.66;5068046;28;20052;-74
2023/09/10 07:01:37;;;;;;;38.97;34.03;;;;;;;20.31;100.00;101693.34;5067881;28;20097;-74
2023/09/10 07:04:15;;;;;;;34.28;30.58;;;;;;;20.38;100.00;101693.03;5064000;28;20066;-74
2023/09/10 07:06:40;;;;;;;36.88;31.88;;;;;;;20.52;100.00;101706.47;5057002;28;20033;-74
2023/09/10 07:09:06;;;;;;;35.25;30.08;;;;;;;20.55;100.00;101695.72;5067519;28;20048;-74
2023/09/10 07:11:31;;;;;;;37.28;31.95;;;;;;;20.69;100.00;101705.59;5062133;28;20475;-74
2023/09/10 07:13:56;;;;;;;36.53;32.42;;;;;;;20.77;100.00;101706.06;5061142;28;20064;-74
2023/09/10 07:16:23;;;;;;;42.50;33.88;;;;;;;20.87;100.00;101703.78;5068724;28;20028;-74
2023/09/10 07:18:48;;;;;;;38.92;32.17;;;;;;;20.96;100.00;101693.53;5061944;28;20155;-74
2023/09/10 07:21:13;;;;;;;34.92;30.30;;;;;;;21.07;100.00;101703.56;5069323;28;20119;-74
2023/09/10 07:23:39;;;;;;;35.35;30.48;;;;;;;21.13;100.00;101695.28;5060823;28;20541;-74
2023/09/10 07:26:04;;;;;;;36.35;31.75;;;;;;;21.24;100.00;101703.50;5068171;28;20118;-74
2023/09/10 07:28:29;;;;;;;33.05;29.60;;;;;;;21.33;100.00;101707.44;5062988;28;20491;-74
2023/09/10 07:30:55;;;;;;;32.70;28.13;;;;;;;21.40;100.00;101703.53;5065269;28;20020;-74
2023/09/10 07:33:20;;;;;;;36.40;27.25;;;;;;;21.46;100.00;101707.66;5065168;28;20053;-74
2023/09/10 07:35:45;;;;;;;31.05;27.75;;;;;;;21.56;100.00;101694.75;5063098;28;20055;-74
2023/09/10 07:38:10;;;;;;;36.22;26.90;;;;;;;21.61;100.00;101696.16;5064919;28;20036;-74
2023/09/10 07:40:36;;;;;;;30.70;27.27;;;;;;;21.68;100.00;101697.56;5063864;28;20125;-74
2023/09/10 07:43:02;;;;;;;31.08;26.02;;;;;;;21.78;100.00;101692.59;5064396;28;20191;-74
2023/09/10 07:45:27;;;;;;;29.40;26.10;;;;;;;21.92;100.00;101699.75;5064624;28;20024;-74
2023/09/10 07:47:53;;;;;;;27.38;24.20;;;;;;;22.03;100.00;101704.44;5063936;28;20044;-74
2023/09/10 07:50:19;;;;;;;27.30;24.27;;;;;;;22.12;100.00;101701.25;5064257;28;20028;-74
2023/09/10 07:52:44;;;;;;;31.02;24.67;;;;;;;22.22;100.00;101694.47;5063943;28;20031;-74
2023/09/10 07:55:10;;;;;;;28.23;22.65;;;;;;;22.27;100.00;101694.19;5064927;28;20040;-74
2023/09/10 07:57:35;;;;;;;25.35;22.33;;;;;;;22.41;100.00;101699.56;5066630;28;20027;-74
2023/09/10 08:00:00;;;;;;;25.80;22.25;;;;;;;22.50;100.00;101707.00;5062957;28;20064;-74
2023/09/10 08:02:27;;;;;;;27.65;21.58;;;;;;;22.61;100.00;101712.50;5067943;28;20060;-74
2023/09/10 08:04:54;;;;;;;23.33;20.88;;;;;;;22.71;100.00;101715.47;5060236;28;20474;-74
2023/09/10 08:07:21;;;;;;;21.75;19.10;;;;;;;22.78;100.00;101718.59;5069583;28;20067;-74
2023/09/10 08:09:46;;;;;;;26.05;19.73;;;;;;;22.87;100.00;101718.03;5060727;28;20464;-74
2023/09/10 08:12:12;;;;;;;21.73;18.02;;;;;;;22.99;100.00;101716.44;5061923;28;20090;-74
2023/09/10 08:14:38;;;;;;;23.85;18.63;;;;;;;23.06;100.00;101717.78;5062636;28;20070;-74
2023/09/10 08:17:04;;;;;;;20.00;17.80;;;;;;;23.14;100.00;101711.03;5063064;28;20092;-74
2023/09/10 08:19:29;;;;;;;21.25;17.00;;;;;;;23.27;100.00;101712.94;5062790;28;20135;-74
2023/09/10 08:21:54;;;;;;;22.60;17.88;;;;;;;23.32;100.00;101709.03;5064939;28;20028;-74
2023/09/10 08:24:21;;;;;;;20.77;17.35;;;;;;;23.49;100.00;101717.75;5062069;28;20075;-74
2023/09/10 08:26:46;;;;;;;20.17;15.98;;;;;;;23.48;100.00;101705.38;5066221;28;20308;-74
2023/09/10 08:29:12;;;;;;;20.10;17.40;;;;;;;23.57;100.00;101707.44;5060982;28;20040;-74
2023/09/10 08:31:37;;;;;;;20.83;16.80;;;;;;;23.69;100.00;101696.03;5068305;28;20024;-74
2023/09/10 08:34:02;;;;;;;19.35;16.50;;;;;;;23.85;100.00;101705.69;5060111;28;20381;-74
2023/09/10 08:36:28;;;;;;;19.30;16.17;;;;;;;23.96;100.00;101705.84;5068341;28;20025;-74
2023/09/10 08:38:54;;;;;;;19.00;15.48;;;;;;;24.04;100.00;101704.38;5060744;28;20031;-74
2023/09/10 08:41:21;;;;;;;17.27;15.32;;;;;;;24.12;100.00;101708.34;5066746;28;20452;-74
2023/09/10 08:43:58;;;;;;;17.50;13.98;;;;;;;24.17;100.00;101696.41;5061036;28;20645;-74
2023/09/10 08:46:30;;;;;;;19.67;15.68;;;;;;;24.26;100.00;101702.91;5061934;28;20028;-74
2023/09/10 08:48:57;;;;;;;18.08;14.50;;;;;;;24.31;100.00;101700.81;5060583;28;20055;-74
2023/09/10 08:51:22;;;;;;;21.20;14.45;;;;;;;24.39;100.00;101706.47;5066710;28;20033;-74
2023/09/10 08:53:50;;;;;;;16.50;13.32;;;;;;;24.48;100.00;101700.53;5061929;28;20553;-74
2023/09/10 08:56:15;;;;;;;18.60;12.32;;;;;;;24.67;100.00;101709.94;5064874;28;20025;-74
2023/09/10 08:58:43;;;;;;;13.55;11.98;;;;;;;24.76;100.00;101710.16;5065800;28;20021;-74
2023/09/10 09:01:09;;;;;;;16.30;11.65;;;;;;;24.90;100.00;101716.34;5059655;28;20029;-74
2023/09/10 09:03:35;;;;;;;17.42;12.45;;;;;;;24.95;100.00;101712.41;5063171;28;20036;-74
2023/09/10 09:06:04;;;;;;;16.90;12.15;;;;;;;25.07;100.00;101709.81;5062671;28;20027;-74
2023/09/10 09:08:32;;;;;;;18.95;11.95;;;;;;;25.20;100.00;101713.34;5061307;28;20467;-74
2023/09/10 09:11:06;;;;;;;13.93;11.88;;;;;;;25.32;100.00;101711.63;5063733;28;20036;-75
2023/09/10 09:13:37;;;;;;;19.77;10.60;;;;;;;25.48;100.00;101706.03;5051853;28;20044;-74
2023/09/10 09:16:04;;;;;;;14.10;10.45;;;;;;;25.64;100.00;101707.47;5066190;28;20048;-74
2023/09/10 09:18:30;;;;;;;16.30;10.82;;;;;;;25.75;100.00;101701.31;5056109;28;20036;-74
2023/09/10 09:21:01;;;;;;;11.68;9.98;;;;;;;25.87;100.00;101705.78;5065860;28;20025;-74
2023/09/10 09:23:35;;;;;;;13.68;11.00;;;;;;;25.95;100.00;101704.34;5060347;28;20100;-74
2023/09/10 09:26:01;;;;;;;14.68;10.85;;;;;;;26.02;100.00;101698.44;5066117;28;20074;-74
2023/09/10 09:28:28;;;;;;;13.30;10.43;;;;;;;26.12;100.00;101696.75;5061116;28;20067;-74
2023/09/10 09:30:53;;;;;;;15.85;10.32;;;;;;;26.25;100.00;101699.34;5063863;28;20479;-74
2023/09/10 09:33:18;;;;;;;13.27;10.70;;;;;;;26.37;100.00;101694.91;5063484;28;20055;-75
2023/09/10 09:35:46;;;;;;;12.40;9.93;;;;;;;26.47;100.00;101690.56;5061449;28;20372;-74
2023/09/10 09:38:13;;;;;;;14.50;10.52;;;;;;;26.53;100.00;101689.25;5063455;28;20438;-74
2023/09/10 09:40:39;;;;;;;17.67;10.35;;;;;;;26.66;100.00;101692.69;5062190;28;20494;-74
2023/09/10 09:43:09;;;;;;;13.27;10.20;;;;;;;26.67;100.00;101689.03;5062588;28;20028;-74
2023/09/10 09:45:39;;;;;;;14.27;10.30;;;;;;;26.80;100.00;101686.25;5062528;28;20033;-74
2023/09/10 09:48:05;;;;;;;11.88;9.50;;;;;;;26.80;100.00;101686.25;5063245;28;20045;-74
2023/09/10 09:50:31;;;;;;;16.70;9.32;;;;;;;26.93;100.00;101678.09;5062729;28;20431;-74
2023/09/10 09:52:57;;;;;;;13.25;8.63;;;;;;;27.05;100.00;101679.81;5062733;28;20025;-74
2023/09/10 09:55:22;;;;;;;13.32;9.88;;;;;;;27.15;100.00;101678.13;5063423;28;20372;-74
2023/09/10 09:57:49;;;;;;;13.38;8.43;;;;;;;27.19;100.00;101666.19;5065265;28;20155;-74
2023/09/10 10:00:15;;;;;;;15.77;9.27;;;;;;;27.33;93.64;101672.25;5063332;28;20059;-74
2023/09/10 10:02:41;;;;;;;17.90;8.85;;;;;;;27.41;97.51;101669.81;5061076;28;20025;-75
2023/09/10 10:05:07;;;;;;;14.25;9.00;;;;;;;27.57;99.24;101670.25;5061494;28;20024;-74
2023/09/10 10:07:36;;;;;;;15.23;8.88;;;;;;;27.65;95.62;101666.94;5062894;28;20016;-74
2023/09/10 10:10:05;;;;;;;11.70;8.30;;;;;;;27.78;97.05;101668.50;5057717;28;20104;-74
2023/09/10 10:12:31;;;;;;;11.15;7.82;;;;;;;27.80;94.70;101671.06;5064559;28;20024;-74
2023/09/10 10:14:57;;;;;;;12.98;7.13;;;;;;;27.97;90.33;101675.00;5065145;28;20387;-74
2023/09/10 10:17:23;;;;;;;12.27;6.43;;;;;;;28.00;85.22;101670.22;5065801;28;20074;-74
2023/09/10 10:19:49;;;;;;;14.50;7.15;;;;;;;28.07;86.76;101667.03;5065239;28;20104;-74
2023/09/10 10:22:15;;;;;;;9.15;6.85;;;;;;;28.19;87.11;101661.47;5065170;28;20104;-74
2023/09/10 10:24:41;;;;;;;12.38;7.00;;;;;;;28.18;79.21;101657.06;5065627;28;20055;-74
2023/09/10 10:27:08;;;;;;;12.18;7.50;;;;;;;28.30;83.96;101668.59;5066628;28;20032;-74
2023/09/10 10:29:33;;;;;;;11.75;7.35;;;;;;;28.33;85.85;101662.13;5065514;28;20037;-74
2023/09/10 10:32:10;;;;;;;15.30;7.30;;;;;;;28.46;87.20;101662.81;5067511;28;20143;-74
2023/09/10 10:34:39;;;;;;;11.32;6.88;;;;;;;28.58;85.71;101663.56;5065037;28;20036;-74
2023/09/10 10:37:15;;;;;;;8.85;6.95;;;;;;;28.60;81.96;101661.59;5068312;28;20032;-75
2023/09/10 10:39:56;;;;;;;12.60;7.05;;;;;;;28.68;81.89;101657.28;5063879;28;20033;-74
2023/09/10 10:42:32;;;;;;;12.02;7.78;;;;;;;28.77;80.74;101649.38;5066706;28;20099;-74
2023/09/10 10:45:01;;;;;;;11.52;7.22;;;;;;;28.87;80.11;101652.94;5052654;28;20077;-74
2023/09/10 10:47:29;;;;;;;13.48;7.15;;;;;;;28.91;80.00;101654.41;5066155;28;20433;-74
2023/09/10 10:49:56;;;;;;;15.55;6.50;;;;;;;29.00;81.00;101656.28;5065088;28;20072;-74
2023/09/10 10:52:30;;;;;;;11.00;7.22;;;;;;;29.19;83.33;101655.50;5068449;28;20052;-74
2023/09/10 10:54:56;;;;;;;8.93;6.85;;;;;;;29.23;84.55;101648.84;5063800;28;20056;-74
2023/09/10 10:57:22;;;;;;;13.02;8.77;;;;;;;29.31;85.40;101651.72;5072757;28;20063;-74
2023/09/10 10:59:48;;;;;;;12.48;7.25;;;;;;;29.35;75.55;101644.22;5061706;28;20029;-74
2023/09/10 11:02:15;;;;;;;13.80;7.32;;;;;;;29.38;80.84;101639.41;5049642;28;20444;-74